Ride Results

Kimberley Fire Brigade Challenge (03-05-2014)
Ride distance: 80.0 km

Outcomes - Kimberley Fire Brigade Challenge (03-05-2014)
Division No. of Entries Retired / DNE Completed Withdrawn Ineligible V/O Percentage Completed
HW 6 - 4 - - 2 66.67%
MW 12 - 11 - - 1 91.67%
LW 10 - 7 1 - 2 70.00%
JN 10 - 9 - - 1 90.00%
Totals 38 - 31 1 - 6 81.58%
Results - Kimberley Fire Brigade Challenge (03-05-2014)
No. Rider Horse Place Time Leg Speeds Total
Km/Hr
H/R bpm
Heavyweight
247 David Pilgrim Willow Valley Majestic 1 (BC) 6:39:00 13.1, 11.1 12.03 42, 39, 48 (Avg:43)
254 Deb Wyllie At Dial Range Peanut 2 7:20:01 11.2, 10.5 10.91 40, 46, 58 (Avg:52)
278 Jai Ingram Lothlorian Park Illusion 3 7:22:50 11.2, 10.4 10.84 45, 52, 58 (Avg:55)
199 Dennis Foley Jnr Sienna Ekzotica 4 8:07:00 9.9, 9.7 9.86 33, 46, 55 (Avg:50)
137 John Shoobridge Tex Heart Rate L2 0:00:00 14.2, 13.2 - 38, 41, 67 (Avg:54)
176 Greg Burford Murphy Lame L1 0:00:00 10.0 - 31, 46 (Avg:46)
Middleweight
101 Wendy Rand Shayelle Memphis 1 (BC) 5:00:20 16.6, 15.3 15.98 33, 40, 45 (Avg:42)
261 Danielle Taylor Karisma Painted Rascal 2 5:00:25 16.6, 15.3 15.98 58, 49, 48 (Avg:48)
57 Tania Jago Rivergum Ripper 3 5:40:00 16.3, 12.4 14.12 39, 41, 49 (Avg:45)
263 Linda Pilgrim Espirit Jeramiah 4 6:39:01 13.1, 11.1 12.03 42, 47, 47 (Avg:47)
136 Kaye Mitchell Beer Street Demelza 5 6:46:00 14.5, 9.9 11.82 33, 51, 54 (Avg:52)
66 Saeed Al Maktoum Vandieman Mirakuru 6 7:07:00 12.3, 10.3 11.24 36, 45, 49 (Avg:47)
249 Hussain Ali AlMarzooqi Jeshar Park Shahriann 6 7:07:00 12.6, 10.0 11.24 30, 39, 46 (Avg:42)
287 Salim Al-Waheibi Vandieman Tassie Devil 6 7:07:00 12.3, 10.3 11.24 35, 45, 51 (Avg:48)
19 Sonia Hodgetts Elphyn Callum 9 7:22:52 11.2, 10.4 10.84 41, 39, 50 (Avg:44)
92 Blaine Astell Kato 10 7:37:00 9.9, 11.0 10.50 30, 47, 51 (Avg:49)
282 Lucy Hobson Shemali Silver Sherif 11 8:04:40 10.0, 9.7 9.90 35, 45, 54 (Avg:49)
185 Mikaela Jago Undurra Geisha Lame L2 0:00:00 16.3, 12.4 - 41, 43, 50 (Avg:46)
Lightweight
42 Dianne Walsh Kalkadoon Malachi 1 (BC) 5:06:20 16.1, 15.2 15.67 33, 42, 39 (Avg:40)
231 Andrew Matthews Shemali Saladin 2 6:33:00 13.1, 11.4 12.21 40, 46, 56 (Avg:51)
100 Trish Smith Anglesea Piccolo 3 7:19:00 11.7, 10.2 10.93 34, 40, 44 (Avg:42)
125 Brooke Brown-Cordell Yondover Ridge Unique 4 7:20:00 11.2, 10.5 10.91 30, 41, 46 (Avg:43)
90 Angela Hawks Razara Mystery Maker 5 7:37:00 9.9, 11.0 10.50 38, 43, 48 (Avg:45)
12 Anita Hutchins Malricia Nevra 6 8:04:00 10.1, 9.6 9.92 34, 42, 48 (Avg:45)
281 Natasha Willemse Ma Diksh 7 8:04:38 10.0, 9.7 9.90 34, 50, 53 (Avg:51)
191 Jess Ashman Ma Musharef Lame L2 0:00:00 10.1, 9.7 - 32, 46, 48 (Avg:47)
3 Kathy Guinan Performance Park Guinevere Lame L2 0:00:00 10.3, 10.5 - 33, 40, 40 (Avg:40)
274 Christal Rizk Castlebar Decree Withdrawn L1 0:00:00 - - 40, 42 (Avg:42)
Junior
190 Alice Mitchell Beer Street Banshee 1 (BC) 5:06:20 16.1, 15.2 15.67 37, 43, 47 (Avg:45)
285 Bronte Page Davinchi 2 7:07:00 12.6, 10.0 11.24 39, 47, 51 (Avg:49)
186 Amelia Napier Dee Zyne Hot Chocolate 3 7:19:00 11.4, 10.4 10.93 30, 39, 42 (Avg:40)
288 David Anderson Jnr Glanheathyn Curio 4 7:20:02 11.2, 10.5 10.91 32, 43, 46 (Avg:44)
209 Grace Huxtable Chantree Park Desert Prince 4 7:20:02 11.2, 10.5 10.91 37, 44, 44 (Avg:44)
279 Georgia Burley Rivergum Drover 6 7:40:01 11.4, 9.5 10.43 35, 44, 54 (Avg:49)
233 Annalise Glover Lee 'Rangi El Silver General 7 7:40:02 11.4, 9.5 10.43 45, 46, 56 (Avg:51)
154 Sarah Parker Kalody Park Impact 8 8:03:00 10.0, 9.7 9.94 37, 47, 57 (Avg:52)
286 Pyper Page Torryburn Sahbeel 9 8:07:00 10.0, 9.6 9.86 36, 48, 53 (Avg:50)
290 Kirsty Sward Neilly Jaimon-Sharhi Baqi Lame L1 0:00:00 10.3 - 38, 45 (Avg:45)